sensor_id;sensor_type;location;lat;lon;timestamp;temperature;humidity
52415;DHT22;38340;52.964;6.086;2022-09-30T00:01:20;7.50;99.90
52415;DHT22;38340;52.964;6.086;2022-09-30T00:03:46;7.50;99.90
52415;DHT22;38340;52.964;6.086;2022-09-30T00:06:14;7.50;99.90
52415;DHT22;38340;52.964;6.086;2022-09-30T00:08:39;7.50;99.90
52415;DHT22;38340;52.964;6.086;2022-09-30T00:11:09;7.50;99.90
52415;DHT22;38340;52.964;6.086;2022-09-30T00:13:37;7.50;99.90
52415;DHT22;38340;52.964;6.086;2022-09-30T00:16:03;7.50;99.90
52415;DHT22;38340;52.964;6.086;2022-09-30T00:18:30;7.50;99.90
52415;DHT22;38340;52.964;6.086;2022-09-30T00:20:56;7.40;99.90
52415;DHT22;38340;52.964;6.086;2022-09-30T00:23:23;7.40;99.90
52415;DHT22;38340;52.964;6.086;2022-09-30T00:25:49;7.30;99.90
52415;DHT22;38340;52.964;6.086;2022-09-30T00:28:15;7.20;99.90
52415;DHT22;38340;52.964;6.086;2022-09-30T00:30:41;7.10;99.90
52415;DHT22;38340;52.964;6.086;2022-09-30T00:33:08;7.10;99.90
52415;DHT22;38340;52.964;6.086;2022-09-30T00:35:35;7.00;99.90
52415;DHT22;38340;52.964;6.086;2022-09-30T00:38:00;7.00;99.90
52415;DHT22;38340;52.964;6.086;2022-09-30T00:40:26;6.90;99.90
52415;DHT22;38340;52.964;6.086;2022-09-30T00:42:52;6.90;99.90
52415;DHT22;38340;52.964;6.086;2022-09-30T00:45:18;6.80;99.90
52415;DHT22;38340;52.964;6.086;2022-09-30T00:47:53;6.80;99.90
52415;DHT22;38340;52.964;6.086;2022-09-30T00:53:10;6.70;99.90
52415;DHT22;38340;52.964;6.086;2022-09-30T00:55:50;6.70;99.90
52415;DHT22;38340;52.964;6.086;2022-09-30T00:59:01;6.70;99.90
52415;DHT22;38340;52.964;6.086;2022-09-30T01:01:27;6.70;99.90
52415;DHT22;38340;52.964;6.086;2022-09-30T01:03:58;6.70;99.90
52415;DHT22;38340;52.964;6.086;2022-09-30T01:06:25;6.70;99.90
52415;DHT22;38340;52.964;6.086;2022-09-30T01:08:51;6.70;99.90
52415;DHT22;38340;52.964;6.086;2022-09-30T01:11:17;6.80;99.90
52415;DHT22;38340;52.964;6.086;2022-09-30T01:13:45;6.80;99.90
52415;DHT22;38340;52.964;6.086;2022-09-30T01:16:38;6.70;99.90
52415;DHT22;38340;52.964;6.086;2022-09-30T01:30:15;6.70;99.90
52415;DHT22;38340;52.964;6.086;2022-09-30T01:38:48;6.60;99.90
52415;DHT22;38340;52.964;6.086;2022-09-30T01:46:42;6.40;99.90
52415;DHT22;38340;52.964;6.086;2022-09-30T01:49:41;6.50;99.90
52415;DHT22;38340;52.964;6.086;2022-09-30T01:52:14;6.40;99.90
52415;DHT22;38340;52.964;6.086;2022-09-30T01:54:54;6.40;99.90
52415;DHT22;38340;52.964;6.086;2022-09-30T01:57:41;6.40;99.90
52415;DHT22;38340;52.964;6.086;2022-09-30T02:00:10;6.40;99.90
52415;DHT22;38340;52.964;6.086;2022-09-30T02:02:53;6.30;99.90
52415;DHT22;38340;52.964;6.086;2022-09-30T02:05:40;6.30;99.90
52415;DHT22;38340;52.964;6.086;2022-09-30T02:10:57;6.10;99.90
52415;DHT22;38340;52.964;6.086;2022-09-30T02:15:55;5.80;99.90
52415;DHT22;38340;52.964;6.086;2022-09-30T02:18:30;5.70;99.90
52415;DHT22;38340;52.964;6.086;2022-09-30T02:21:02;5.70;99.90
52415;DHT22;38340;52.964;6.086;2022-09-30T02:23:32;5.80;99.90
52415;DHT22;38340;52.964;6.086;2022-09-30T02:26:15;5.80;99.90
52415;DHT22;38340;52.964;6.086;2022-09-30T02:28:55;5.70;99.90
52415;DHT22;38340;52.964;6.086;2022-09-30T02:31:25;5.70;99.90
52415;DHT22;38340;52.964;6.086;2022-09-30T02:33:56;5.60;99.90
52415;DHT22;38340;52.964;6.086;2022-09-30T02:36:42;5.50;99.90
52415;DHT22;38340;52.964;6.086;2022-09-30T02:39:39;5.50;99.90
52415;DHT22;38340;52.964;6.086;2022-09-30T02:42:33;5.50;99.90
52415;DHT22;38340;52.964;6.086;2022-09-30T02:45:02;5.40;99.90
52415;DHT22;38340;52.964;6.086;2022-09-30T02:55:28;5.50;99.90
52415;DHT22;38340;52.964;6.086;2022-09-30T02:58:07;5.50;99.90
52415;DHT22;38340;52.964;6.086;2022-09-30T03:00:36;5.60;99.90
52415;DHT22;38340;52.964;6.086;2022-09-30T03:03:13;5.50;99.90
52415;DHT22;38340;52.964;6.086;2022-09-30T03:05:40;5.60;99.90
52415;DHT22;38340;52.964;6.086;2022-09-30T03:08:06;5.70;99.90
52415;DHT22;38340;52.964;6.086;2022-09-30T03:10:32;5.70;99.90
52415;DHT22;38340;52.964;6.086;2022-09-30T03:21:22;5.60;99.90
52415;DHT22;38340;52.964;6.086;2022-09-30T03:24:40;5.60;99.90
52415;DHT22;38340;52.964;6.086;2022-09-30T03:32:35;5.30;99.90
52415;DHT22;38340;52.964;6.086;2022-09-30T03:48:52;5.00;99.90
52415;DHT22;38340;52.964;6.086;2022-09-30T03:51:20;5.10;99.90
52415;DHT22;38340;52.964;6.086;2022-09-30T03:53:46;5.10;99.90
52415;DHT22;38340;52.964;6.086;2022-09-30T03:56:12;5.10;99.90
52415;DHT22;38340;52.964;6.086;2022-09-30T03:58:42;5.20;99.90
52415;DHT22;38340;52.964;6.086;2022-09-30T04:01:16;5.10;99.90
52415;DHT22;38340;52.964;6.086;2022-09-30T04:03:49;5.20;99.90
52415;DHT22;38340;52.964;6.086;2022-09-30T04:06:23;5.20;99.90
52415;DHT22;38340;52.964;6.086;2022-09-30T04:08:49;5.10;99.90
52415;DHT22;38340;52.964;6.086;2022-09-30T04:11:16;5.10;99.90
52415;DHT22;38340;52.964;6.086;2022-09-30T04:13:42;5.00;99.90
52415;DHT22;38340;52.964;6.086;2022-09-30T04:16:08;4.90;99.90
52415;DHT22;38340;52.964;6.086;2022-09-30T04:18:35;5.00;99.90
52415;DHT22;38340;52.964;6.086;2022-09-30T04:21:11;5.00;99.90
52415;DHT22;38340;52.964;6.086;2022-09-30T04:23:39;4.90;99.90
52415;DHT22;38340;52.964;6.086;2022-09-30T04:26:06;4.80;99.90
52415;DHT22;38340;52.964;6.086;2022-09-30T04:28:32;4.80;99.90
52415;DHT22;38340;52.964;6.086;2022-09-30T04:31:03;4.80;99.90
52415;DHT22;38340;52.964;6.086;2022-09-30T04:33:29;4.70;99.90
52415;DHT22;38340;52.964;6.086;2022-09-30T04:35:55;4.70;99.90
52415;DHT22;38340;52.964;6.086;2022-09-30T04:38:22;4.80;99.90
52415;DHT22;38340;52.964;6.086;2022-09-30T04:40:50;4.90;99.90
52415;DHT22;38340;52.964;6.086;2022-09-30T04:43:16;4.90;99.90
52415;DHT22;38340;52.964;6.086;2022-09-30T04:45:44;4.90;99.90
52415;DHT22;38340;52.964;6.086;2022-09-30T04:48:13;4.90;99.90
52415;DHT22;38340;52.964;6.086;2022-09-30T04:50:39;4.90;99.90
52415;DHT22;38340;52.964;6.086;2022-09-30T04:53:06;4.90;99.90
52415;DHT22;38340;52.964;6.086;2022-09-30T04:55:32;4.80;99.90
52415;DHT22;38340;52.964;6.086;2022-09-30T04:57:58;4.80;99.90
52415;DHT22;38340;52.964;6.086;2022-09-30T05:00:23;4.70;99.90
52415;DHT22;38340;52.964;6.086;2022-09-30T05:02:50;4.80;99.90
52415;DHT22;38340;52.964;6.086;2022-09-30T05:05:16;4.80;99.90
52415;DHT22;38340;52.964;6.086;2022-09-30T05:07:42;4.70;99.90
52415;DHT22;38340;52.964;6.086;2022-09-30T05:10:09;4.70;99.90
52415;DHT22;38340;52.964;6.086;2022-09-30T05:12:39;4.60;99.90
52415;DHT22;38340;52.964;6.086;2022-09-30T05:15:09;4.60;99.90
52415;DHT22;38340;52.964;6.086;2022-09-30T05:17:35;4.60;99.90
52415;DHT22;38340;52.964;6.086;2022-09-30T05:20:01;4.70;99.90
52415;DHT22;38340;52.964;6.086;2022-09-30T05:22:27;4.70;99.90
52415;DHT22;38340;52.964;6.086;2022-09-30T05:24:53;4.60;99.90
52415;DHT22;38340;52.964;6.086;2022-09-30T05:27:21;4.60;99.90
52415;DHT22;38340;52.964;6.086;2022-09-30T05:29:47;4.70;99.90
52415;DHT22;38340;52.964;6.086;2022-09-30T05:32:13;4.70;99.90
52415;DHT22;38340;52.964;6.086;2022-09-30T05:34:39;4.70;99.90
52415;DHT22;38340;52.964;6.086;2022-09-30T05:37:06;4.60;99.90
52415;DHT22;38340;52.964;6.086;2022-09-30T05:39:33;4.70;99.90
52415;DHT22;38340;52.964;6.086;2022-09-30T05:41:58;4.70;99.90
52415;DHT22;38340;52.964;6.086;2022-09-30T05:44:24;4.70;99.90
52415;DHT22;38340;52.964;6.086;2022-09-30T05:46:50;4.70;99.90
52415;DHT22;38340;52.964;6.086;2022-09-30T05:49:15;4.70;99.90
52415;DHT22;38340;52.964;6.086;2022-09-30T05:51:41;4.70;99.90
52415;DHT22;38340;52.964;6.086;2022-09-30T05:54:09;4.80;99.90
52415;DHT22;38340;52.964;6.086;2022-09-30T05:56:35;4.80;99.90
52415;DHT22;38340;52.964;6.086;2022-09-30T05:59:04;4.80;99.90
52415;DHT22;38340;52.964;6.086;2022-09-30T06:01:29;4.80;99.90
52415;DHT22;38340;52.964;6.086;2022-09-30T06:03:55;4.90;99.90
52415;DHT22;38340;52.964;6.086;2022-09-30T06:06:21;5.00;99.90
52415;DHT22;38340;52.964;6.086;2022-09-30T06:08:47;4.90;99.90
52415;DHT22;38340;52.964;6.086;2022-09-30T06:11:15;4.90;99.90
52415;DHT22;38340;52.964;6.086;2022-09-30T06:13:41;4.90;99.90
52415;DHT22;38340;52.964;6.086;2022-09-30T06:16:08;5.00;99.90
52415;DHT22;38340;52.964;6.086;2022-09-30T06:18:34;5.10;99.90
52415;DHT22;38340;52.964;6.086;2022-09-30T06:21:02;5.20;99.90
52415;DHT22;38340;52.964;6.086;2022-09-30T06:23:31;5.30;99.90
52415;DHT22;38340;52.964;6.086;2022-09-30T06:26:00;5.30;99.90
52415;DHT22;38340;52.964;6.086;2022-09-30T06:28:27;5.40;99.90
52415;DHT22;38340;52.964;6.086;2022-09-30T06:30:53;5.50;99.90
52415;DHT22;38340;52.964;6.086;2022-09-30T06:33:19;5.60;99.90
52415;DHT22;38340;52.964;6.086;2022-09-30T06:35:46;5.70;99.90
52415;DHT22;38340;52.964;6.086;2022-09-30T06:38:13;5.90;99.90
52415;DHT22;38340;52.964;6.086;2022-09-30T06:40:41;6.00;99.90
52415;DHT22;38340;52.964;6.086;2022-09-30T06:43:07;6.20;99.90
52415;DHT22;38340;52.964;6.086;2022-09-30T06:45:34;6.30;99.90
52415;DHT22;38340;52.964;6.086;2022-09-30T06:48:02;6.40;99.90
52415;DHT22;38340;52.964;6.086;2022-09-30T06:50:29;6.50;99.90
52415;DHT22;38340;52.964;6.086;2022-09-30T06:52:59;6.70;99.90
52415;DHT22;38340;52.964;6.086;2022-09-30T06:55:26;6.70;99.90
52415;DHT22;38340;52.964;6.086;2022-09-30T06:57:53;6.90;99.90
52415;DHT22;38340;52.964;6.086;2022-09-30T07:00:19;7.00;99.90
52415;DHT22;38340;52.964;6.086;2022-09-30T07:02:44;7.00;99.90
52415;DHT22;38340;52.964;6.086;2022-09-30T07:05:10;7.10;99.90
52415;DHT22;38340;52.964;6.086;2022-09-30T07:07:37;7.20;99.90
52415;DHT22;38340;52.964;6.086;2022-09-30T07:10:03;7.20;99.90
52415;DHT22;38340;52.964;6.086;2022-09-30T07:12:29;7.30;99.90
52415;DHT22;38340;52.964;6.086;2022-09-30T07:14:54;7.40;99.90
52415;DHT22;38340;52.964;6.086;2022-09-30T07:17:21;7.50;99.90
52415;DHT22;38340;52.964;6.086;2022-09-30T07:19:46;7.50;99.90
52415;DHT22;38340;52.964;6.086;2022-09-30T07:22:12;7.70;99.90
52415;DHT22;38340;52.964;6.086;2022-09-30T07:24:59;7.70;99.90
52415;DHT22;38340;52.964;6.086;2022-09-30T07:27:27;7.80;99.90
52415;DHT22;38340;52.964;6.086;2022-09-30T07:29:53;7.90;99.90
52415;DHT22;38340;52.964;6.086;2022-09-30T07:32:20;8.00;99.90
52415;DHT22;38340;52.964;6.086;2022-09-30T07:34:46;8.10;99.90
52415;DHT22;38340;52.964;6.086;2022-09-30T07:37:14;8.30;99.90
52415;DHT22;38340;52.964;6.086;2022-09-30T07:39:41;8.40;99.90
52415;DHT22;38340;52.964;6.086;2022-09-30T07:42:10;8.40;99.90
52415;DHT22;38340;52.964;6.086;2022-09-30T07:44:37;8.60;99.90
52415;DHT22;38340;52.964;6.086;2022-09-30T07:47:12;8.70;99.90
52415;DHT22;38340;52.964;6.086;2022-09-30T07:49:40;8.80;99.90
52415;DHT22;38340;52.964;6.086;2022-09-30T07:52:06;9.00;99.90
52415;DHT22;38340;52.964;6.086;2022-09-30T07:54:32;9.10;99.90
52415;DHT22;38340;52.964;6.086;2022-09-30T07:57:02;9.20;99.90
52415;DHT22;38340;52.964;6.086;2022-09-30T07:59:29;9.40;99.90
52415;DHT22;38340;52.964;6.086;2022-09-30T08:01:56;9.40;99.90
52415;DHT22;38340;52.964;6.086;2022-09-30T08:04:23;9.60;99.90
52415;DHT22;38340;52.964;6.086;2022-09-30T08:06:52;9.70;99.90
52415;DHT22;38340;52.964;6.086;2022-09-30T08:09:20;9.90;99.90
52415;DHT22;38340;52.964;6.086;2022-09-30T08:11:47;10.00;99.90
52415;DHT22;38340;52.964;6.086;2022-09-30T08:14:31;10.10;99.90
52415;DHT22;38340;52.964;6.086;2022-09-30T08:16:57;10.30;99.90
52415;DHT22;38340;52.964;6.086;2022-09-30T08:19:25;10.40;99.90
52415;DHT22;38340;52.964;6.086;2022-09-30T08:21:52;10.50;99.90
52415;DHT22;38340;52.964;6.086;2022-09-30T08:24:19;10.60;99.90
52415;DHT22;38340;52.964;6.086;2022-09-30T08:26:45;10.90;99.90
52415;DHT22;38340;52.964;6.086;2022-09-30T08:29:10;11.00;99.90
52415;DHT22;38340;52.964;6.086;2022-09-30T08:31:38;11.20;99.90
52415;DHT22;38340;52.964;6.086;2022-09-30T08:34:04;11.40;99.90
52415;DHT22;38340;52.964;6.086;2022-09-30T08:36:29;11.50;99.90
52415;DHT22;38340;52.964;6.086;2022-09-30T08:38:55;11.70;99.90
52415;DHT22;38340;52.964;6.086;2022-09-30T08:41:50;11.80;99.90
52415;DHT22;38340;52.964;6.086;2022-09-30T08:53:10;12.40;99.90
52415;DHT22;38340;52.964;6.086;2022-09-30T08:55:42;12.70;99.90
52415;DHT22;38340;52.964;6.086;2022-09-30T08:58:31;12.80;99.90
52415;DHT22;38340;52.964;6.086;2022-09-30T09:01:04;12.90;99.90
52415;DHT22;38340;52.964;6.086;2022-09-30T09:03:32;13.00;99.90
52415;DHT22;38340;52.964;6.086;2022-09-30T09:06:01;13.00;99.90
52415;DHT22;38340;52.964;6.086;2022-09-30T09:16:48;13.40;99.90
52415;DHT22;38340;52.964;6.086;2022-09-30T09:19:24;13.50;99.90
52415;DHT22;38340;52.964;6.086;2022-09-30T09:21:56;13.50;99.90
52415;DHT22;38340;52.964;6.086;2022-09-30T09:24:37;13.60;99.90
52415;DHT22;38340;52.964;6.086;2022-09-30T09:27:19;13.70;99.90
52415;DHT22;38340;52.964;6.086;2022-09-30T09:30:05;13.80;99.90
52415;DHT22;38340;52.964;6.086;2022-09-30T09:32:33;13.90;99.90
52415;DHT22;38340;52.964;6.086;2022-09-30T09:38:23;14.00;99.90
52415;DHT22;38340;52.964;6.086;2022-09-30T09:47:04;14.30;99.90
52415;DHT22;38340;52.964;6.086;2022-09-30T09:49:35;14.40;99.90
52415;DHT22;38340;52.964;6.086;2022-09-30T09:54:47;14.50;99.90
52415;DHT22;38340;52.964;6.086;2022-09-30T09:57:19;14.60;99.90
52415;DHT22;38340;52.964;6.086;2022-09-30T10:00:05;14.60;99.90
52415;DHT22;38340;52.964;6.086;2022-09-30T10:05:31;14.60;99.90
52415;DHT22;38340;52.964;6.086;2022-09-30T10:08:21;14.60;99.90
52415;DHT22;38340;52.964;6.086;2022-09-30T10:10:53;14.60;99.90
52415;DHT22;38340;52.964;6.086;2022-09-30T10:13:32;14.70;99.90
52415;DHT22;38340;52.964;6.086;2022-09-30T10:16:05;14.80;99.90
52415;DHT22;38340;52.964;6.086;2022-09-30T10:18:37;14.70;99.90
52415;DHT22;38340;52.964;6.086;2022-09-30T10:21:18;14.80;99.90
52415;DHT22;38340;52.964;6.086;2022-09-30T10:23:45;14.90;99.90
52415;DHT22;38340;52.964;6.086;2022-09-30T10:28:56;15.00;99.90
52415;DHT22;38340;52.964;6.086;2022-09-30T10:31:29;15.10;99.90
52415;DHT22;38340;52.964;6.086;2022-09-30T10:36:47;15.30;99.90
52415;DHT22;38340;52.964;6.086;2022-09-30T10:39:27;15.20;99.90
52415;DHT22;38340;52.964;6.086;2022-09-30T10:42:09;15.30;99.90
52415;DHT22;38340;52.964;6.086;2022-09-30T10:44:43;15.30;99.90
52415;DHT22;38340;52.964;6.086;2022-09-30T10:47:14;15.40;99.90
52415;DHT22;38340;52.964;6.086;2022-09-30T10:52:23;15.40;99.90
52415;DHT22;38340;52.964;6.086;2022-09-30T10:54:58;15.40;99.90
52415;DHT22;38340;52.964;6.086;2022-09-30T10:57:27;15.50;99.90
52415;DHT22;38340;52.964;6.086;2022-09-30T11:00:15;15.40;99.90
52415;DHT22;38340;52.964;6.086;2022-09-30T11:03:10;15.40;99.90
52415;DHT22;38340;52.964;6.086;2022-09-30T11:05:40;15.30;99.90
52415;DHT22;38340;52.964;6.086;2022-09-30T11:08:42;15.30;99.90
52415;DHT22;38340;52.964;6.086;2022-09-30T11:11:14;15.10;99.90
52415;DHT22;38340;52.964;6.086;2022-09-30T11:14:00;15.00;99.90
52415;DHT22;38340;52.964;6.086;2022-09-30T11:16:51;15.00;99.90
52415;DHT22;38340;52.964;6.086;2022-09-30T11:20:19;15.10;99.90
52415;DHT22;38340;52.964;6.086;2022-09-30T11:22:59;15.20;99.90
52415;DHT22;38340;52.964;6.086;2022-09-30T11:25:42;15.20;99.90
52415;DHT22;38340;52.964;6.086;2022-09-30T11:28:33;15.30;99.90
52415;DHT22;38340;52.964;6.086;2022-09-30T11:31:02;15.50;99.90
52415;DHT22;38340;52.964;6.086;2022-09-30T11:33:36;15.60;99.90
52415;DHT22;38340;52.964;6.086;2022-09-30T11:36:12;15.60;99.90
52415;DHT22;38340;52.964;6.086;2022-09-30T11:41:37;15.40;99.90
52415;DHT22;38340;52.964;6.086;2022-09-30T11:47:32;15.60;99.90
52415;DHT22;38340;52.964;6.086;2022-09-30T11:57:55;16.10;99.90
52415;DHT22;38340;52.964;6.086;2022-09-30T12:00:22;16.20;99.90
52415;DHT22;38340;52.964;6.086;2022-09-30T12:03:18;16.20;99.90
52415;DHT22;38340;52.964;6.086;2022-09-30T12:05:47;16.20;99.90
52415;DHT22;38340;52.964;6.086;2022-09-30T12:08:28;16.20;99.90
52415;DHT22;38340;52.964;6.086;2022-09-30T12:11:03;16.30;99.90
52415;DHT22;38340;52.964;6.086;2022-09-30T12:13:43;16.30;99.90
52415;DHT22;38340;52.964;6.086;2022-09-30T12:16:19;16.30;99.90
52415;DHT22;38340;52.964;6.086;2022-09-30T12:18:51;16.40;99.90
52415;DHT22;38340;52.964;6.086;2022-09-30T12:21:39;16.10;99.90
52415;DHT22;38340;52.964;6.086;2022-09-30T12:26:40;16.10;99.90
52415;DHT22;38340;52.964;6.086;2022-09-30T12:29:32;16.00;99.90
52415;DHT22;38340;52.964;6.086;2022-09-30T12:35:32;15.90;99.90
52415;DHT22;38340;52.964;6.086;2022-09-30T12:46:27;16.40;99.90
52415;DHT22;38340;52.964;6.086;2022-09-30T12:49:05;16.40;99.90
52415;DHT22;38340;52.964;6.086;2022-09-30T12:51:35;16.50;99.90
52415;DHT22;38340;52.964;6.086;2022-09-30T12:54:30;16.60;99.90
52415;DHT22;38340;52.964;6.086;2022-09-30T12:56:59;16.80;99.90
52415;DHT22;38340;52.964;6.086;2022-09-30T12:59:33;16.90;99.90
52415;DHT22;38340;52.964;6.086;2022-09-30T13:02:02;17.00;99.90
52415;DHT22;38340;52.964;6.086;2022-09-30T13:04:36;17.10;99.90
52415;DHT22;38340;52.964;6.086;2022-09-30T13:07:09;17.00;99.90
52415;DHT22;38340;52.964;6.086;2022-09-30T13:09:55;17.10;99.90
52415;DHT22;38340;52.964;6.086;2022-09-30T13:12:47;16.90;99.90
52415;DHT22;38340;52.964;6.086;2022-09-30T13:18:53;16.90;99.90
52415;DHT22;38340;52.964;6.086;2022-09-30T13:31:27;16.50;99.90
52415;DHT22;38340;52.964;6.086;2022-09-30T13:36:59;16.50;99.90
52415;DHT22;38340;52.964;6.086;2022-09-30T13:41:55;16.40;99.90
52415;DHT22;38340;52.964;6.086;2022-09-30T13:47:21;16.60;99.90
52415;DHT22;38340;52.964;6.086;2022-09-30T13:50:11;16.60;99.90
52415;DHT22;38340;52.964;6.086;2022-09-30T13:52:38;16.50;99.90
52415;DHT22;38340;52.964;6.086;2022-09-30T14:01:02;16.70;99.90
52415;DHT22;38340;52.964;6.086;2022-09-30T14:08:50;16.60;99.90
52415;DHT22;38340;52.964;6.086;2022-09-30T14:12:09;16.50;99.90
52415;DHT22;38340;52.964;6.086;2022-09-30T14:16:51;16.20;99.90
52415;DHT22;38340;52.964;6.086;2022-09-30T14:22:10;16.10;99.90
52415;DHT22;38340;52.964;6.086;2022-09-30T14:24:38;16.10;99.90
52415;DHT22;38340;52.964;6.086;2022-09-30T14:27:23;16.00;99.90
52415;DHT22;38340;52.964;6.086;2022-09-30T14:30:08;16.00;99.90
52415;DHT22;38340;52.964;6.086;2022-09-30T14:35:18;16.10;99.90
52415;DHT22;38340;52.964;6.086;2022-09-30T14:37:54;16.00;99.90
52415;DHT22;38340;52.964;6.086;2022-09-30T14:40:30;16.10;99.90
52415;DHT22;38340;52.964;6.086;2022-09-30T14:42:58;16.10;99.90
52415;DHT22;38340;52.964;6.086;2022-09-30T14:45:36;16.10;99.90
52415;DHT22;38340;52.964;6.086;2022-09-30T14:48:08;16.20;99.90
52415;DHT22;38340;52.964;6.086;2022-09-30T14:50:42;16.20;99.90
52415;DHT22;38340;52.964;6.086;2022-09-30T14:53:33;16.20;99.90
52415;DHT22;38340;52.964;6.086;2022-09-30T14:56:00;16.20;99.90
52415;DHT22;38340;52.964;6.086;2022-09-30T14:58:27;16.10;99.90
52415;DHT22;38340;52.964;6.086;2022-09-30T15:03:35;15.90;99.90
52415;DHT22;38340;52.964;6.086;2022-09-30T15:06:03;15.80;99.90
52415;DHT22;38340;52.964;6.086;2022-09-30T15:08:29;15.70;99.90
52415;DHT22;38340;52.964;6.086;2022-09-30T15:10:55;15.50;99.90
52415;DHT22;38340;52.964;6.086;2022-09-30T15:13:24;15.50;99.90
52415;DHT22;38340;52.964;6.086;2022-09-30T15:15:51;15.40;99.90
52415;DHT22;38340;52.964;6.086;2022-09-30T15:18:46;15.40;99.90
52415;DHT22;38340;52.964;6.086;2022-09-30T15:21:15;15.40;99.90
52415;DHT22;38340;52.964;6.086;2022-09-30T15:23:45;15.40;99.90
52415;DHT22;38340;52.964;6.086;2022-09-30T15:26:12;15.40;99.90
52415;DHT22;38340;52.964;6.086;2022-09-30T15:28:39;15.30;99.90
52415;DHT22;38340;52.964;6.086;2022-09-30T15:31:05;15.30;99.90
52415;DHT22;38340;52.964;6.086;2022-09-30T15:33:33;15.30;99.90
52415;DHT22;38340;52.964;6.086;2022-09-30T15:36:25;15.30;99.90
52415;DHT22;38340;52.964;6.086;2022-09-30T15:38:51;15.50;99.90
52415;DHT22;38340;52.964;6.086;2022-09-30T15:41:17;15.50;99.90
52415;DHT22;38340;52.964;6.086;2022-09-30T15:43:50;15.60;99.90
52415;DHT22;38340;52.964;6.086;2022-09-30T15:48:55;15.60;99.90
52415;DHT22;38340;52.964;6.086;2022-09-30T15:51:48;15.50;99.90
52415;DHT22;38340;52.964;6.086;2022-09-30T15:56:39;15.40;99.90
52415;DHT22;38340;52.964;6.086;2022-09-30T15:59:08;15.40;99.90
52415;DHT22;38340;52.964;6.086;2022-09-30T16:04:07;15.40;99.90
52415;DHT22;38340;52.964;6.086;2022-09-30T16:11:45;15.30;99.90
52415;DHT22;38340;52.964;6.086;2022-09-30T16:14:23;15.20;99.90
52415;DHT22;38340;52.964;6.086;2022-09-30T16:16:54;15.20;99.90
52415;DHT22;38340;52.964;6.086;2022-09-30T16:19:20;15.10;99.90
52415;DHT22;38340;52.964;6.086;2022-09-30T16:21:50;14.90;99.90
52415;DHT22;38340;52.964;6.086;2022-09-30T16:26:48;14.80;99.90
52415;DHT22;38340;52.964;6.086;2022-09-30T16:29:15;14.70;99.90
52415;DHT22;38340;52.964;6.086;2022-09-30T16:31:42;14.70;99.90
52415;DHT22;38340;52.964;6.086;2022-09-30T16:34:24;14.60;99.90
52415;DHT22;38340;52.964;6.086;2022-09-30T16:36:52;14.50;99.90
52415;DHT22;38340;52.964;6.086;2022-09-30T16:39:18;14.40;99.90
52415;DHT22;38340;52.964;6.086;2022-09-30T16:41:44;14.30;99.90
52415;DHT22;38340;52.964;6.086;2022-09-30T16:44:10;14.30;99.90
52415;DHT22;38340;52.964;6.086;2022-09-30T16:46:36;14.20;99.90
52415;DHT22;38340;52.964;6.086;2022-09-30T16:49:13;14.20;99.90
52415;DHT22;38340;52.964;6.086;2022-09-30T16:51:39;14.00;99.90
52415;DHT22;38340;52.964;6.086;2022-09-30T16:54:05;14.00;99.90
52415;DHT22;38340;52.964;6.086;2022-09-30T16:56:30;13.90;99.90
52415;DHT22;38340;52.964;6.086;2022-09-30T16:58:56;13.90;99.90
52415;DHT22;38340;52.964;6.086;2022-09-30T17:01:23;13.80;99.90
52415;DHT22;38340;52.964;6.086;2022-09-30T17:03:51;13.70;99.90
52415;DHT22;38340;52.964;6.086;2022-09-30T17:06:19;13.70;99.90
52415;DHT22;38340;52.964;6.086;2022-09-30T17:08:48;13.60;99.90
52415;DHT22;38340;52.964;6.086;2022-09-30T17:11:14;13.60;99.90
52415;DHT22;38340;52.964;6.086;2022-09-30T17:13:40;13.40;99.90
52415;DHT22;38340;52.964;6.086;2022-09-30T17:16:06;13.40;99.90
52415;DHT22;38340;52.964;6.086;2022-09-30T17:18:32;13.30;99.90
52415;DHT22;38340;52.964;6.086;2022-09-30T17:20:58;13.30;99.90
52415;DHT22;38340;52.964;6.086;2022-09-30T17:23:25;13.20;99.90
52415;DHT22;38340;52.964;6.086;2022-09-30T17:25:51;13.20;99.90
52415;DHT22;38340;52.964;6.086;2022-09-30T17:28:18;13.10;99.90
52415;DHT22;38340;52.964;6.086;2022-09-30T17:30:44;13.10;99.90
52415;DHT22;38340;52.964;6.086;2022-09-30T17:33:12;13.00;99.90
52415;DHT22;38340;52.964;6.086;2022-09-30T17:35:39;13.00;99.90
52415;DHT22;38340;52.964;6.086;2022-09-30T17:38:09;13.00;99.90
52415;DHT22;38340;52.964;6.086;2022-09-30T17:40:35;12.90;99.90
52415;DHT22;38340;52.964;6.086;2022-09-30T17:43:20;12.90;99.90
52415;DHT22;38340;52.964;6.086;2022-09-30T17:45:46;12.80;99.90
52415;DHT22;38340;52.964;6.086;2022-09-30T17:48:14;12.80;99.90
52415;DHT22;38340;52.964;6.086;2022-09-30T17:50:42;12.70;99.90
52415;DHT22;38340;52.964;6.086;2022-09-30T17:53:12;12.70;99.90
52415;DHT22;38340;52.964;6.086;2022-09-30T17:55:42;12.70;99.90
52415;DHT22;38340;52.964;6.086;2022-09-30T17:58:09;12.60;99.90
52415;DHT22;38340;52.964;6.086;2022-09-30T18:00:36;12.60;99.90
52415;DHT22;38340;52.964;6.086;2022-09-30T18:03:03;12.60;99.90
52415;DHT22;38340;52.964;6.086;2022-09-30T18:05:29;12.50;99.90
52415;DHT22;38340;52.964;6.086;2022-09-30T18:07:56;12.50;99.90
52415;DHT22;38340;52.964;6.086;2022-09-30T18:10:22;12.50;99.90
52415;DHT22;38340;52.964;6.086;2022-09-30T18:12:48;12.40;99.90
52415;DHT22;38340;52.964;6.086;2022-09-30T18:15:16;12.40;99.90
52415;DHT22;38340;52.964;6.086;2022-09-30T18:17:42;12.40;99.90
52415;DHT22;38340;52.964;6.086;2022-09-30T18:20:09;12.40;99.90
52415;DHT22;38340;52.964;6.086;2022-09-30T18:22:35;12.30;99.90
52415;DHT22;38340;52.964;6.086;2022-09-30T18:25:01;12.30;99.90
52415;DHT22;38340;52.964;6.086;2022-09-30T18:27:50;12.30;99.90
52415;DHT22;38340;52.964;6.086;2022-09-30T18:30:16;12.30;99.90
52415;DHT22;38340;52.964;6.086;2022-09-30T18:32:47;12.30;99.90
52415;DHT22;38340;52.964;6.086;2022-09-30T18:35:14;12.30;99.90
52415;DHT22;38340;52.964;6.086;2022-09-30T18:37:41;12.30;99.90
52415;DHT22;38340;52.964;6.086;2022-09-30T18:40:08;12.30;99.90
52415;DHT22;38340;52.964;6.086;2022-09-30T18:42:34;12.40;99.90
52415;DHT22;38340;52.964;6.086;2022-09-30T18:45:03;12.40;99.90
52415;DHT22;38340;52.964;6.086;2022-09-30T18:47:29;12.40;99.90
52415;DHT22;38340;52.964;6.086;2022-09-30T18:49:57;12.50;99.90
52415;DHT22;38340;52.964;6.086;2022-09-30T18:52:23;12.50;99.90
52415;DHT22;38340;52.964;6.086;2022-09-30T18:54:49;12.50;99.90
52415;DHT22;38340;52.964;6.086;2022-09-30T18:57:15;12.60;99.90
52415;DHT22;38340;52.964;6.086;2022-09-30T18:59:40;12.60;99.90
52415;DHT22;38340;52.964;6.086;2022-09-30T19:02:08;12.60;99.90
52415;DHT22;38340;52.964;6.086;2022-09-30T19:04:34;12.60;99.90
52415;DHT22;38340;52.964;6.086;2022-09-30T19:07:00;12.60;99.90
52415;DHT22;38340;52.964;6.086;2022-09-30T19:09:26;12.60;99.90
52415;DHT22;38340;52.964;6.086;2022-09-30T19:11:52;12.60;99.90
52415;DHT22;38340;52.964;6.086;2022-09-30T19:14:18;12.60;99.90
52415;DHT22;38340;52.964;6.086;2022-09-30T19:16:44;12.60;99.90